sensor_id;sensor_type;location;lat;lon;timestamp;temperature;humidity
21734;DHT22;11029;47.820;10.534;2024-01-30T00:01:21;-0.90;71.70
21734;DHT22;11029;47.820;10.534;2024-01-30T00:04:07;-0.90;71.60
21734;DHT22;11029;47.820;10.534;2024-01-30T00:06:52;-1.00;71.80
21734;DHT22;11029;47.820;10.534;2024-01-30T00:09:38;-1.00;71.40
21734;DHT22;11029;47.820;10.534;2024-01-30T00:12:25;-0.90;71.60
21734;DHT22;11029;47.820;10.534;2024-01-30T00:15:11;-0.90;71.50
21734;DHT22;11029;47.820;10.534;2024-01-30T00:17:57;-0.90;71.50
21734;DHT22;11029;47.820;10.534;2024-01-30T00:20:43;-0.90;71.20
21734;DHT22;11029;47.820;10.534;2024-01-30T00:23:28;-0.90;71.10
21734;DHT22;11029;47.820;10.534;2024-01-30T00:26:14;-0.90;71.30
21734;DHT22;11029;47.820;10.534;2024-01-30T00:29:00;-0.90;70.50
21734;DHT22;11029;47.820;10.534;2024-01-30T00:31:45;-0.90;71.50
21734;DHT22;11029;47.820;10.534;2024-01-30T00:34:31;-0.90;70.60
21734;DHT22;11029;47.820;10.534;2024-01-30T00:37:17;-0.90;70.90
21734;DHT22;11029;47.820;10.534;2024-01-30T00:40:03;-0.90;71.00
21734;DHT22;11029;47.820;10.534;2024-01-30T00:42:51;-0.90;70.80
21734;DHT22;11029;47.820;10.534;2024-01-30T00:45:37;-0.90;72.00
21734;DHT22;11029;47.820;10.534;2024-01-30T00:48:22;-0.90;71.30
21734;DHT22;11029;47.820;10.534;2024-01-30T00:51:08;-0.90;71.30
21734;DHT22;11029;47.820;10.534;2024-01-30T00:53:53;-0.90;71.20
21734;DHT22;11029;47.820;10.534;2024-01-30T00:56:39;-1.00;70.80
21734;DHT22;11029;47.820;10.534;2024-01-30T00:59:25;-1.00;71.00
21734;DHT22;11029;47.820;10.534;2024-01-30T01:02:10;-1.10;71.70
21734;DHT22;11029;47.820;10.534;2024-01-30T01:04:56;-1.00;71.50
21734;DHT22;11029;47.820;10.534;2024-01-30T01:07:42;-1.10;71.30
21734;DHT22;11029;47.820;10.534;2024-01-30T01:10:28;-1.10;71.20
21734;DHT22;11029;47.820;10.534;2024-01-30T01:13:14;-1.10;70.90
21734;DHT22;11029;47.820;10.534;2024-01-30T01:15:59;-1.10;71.20
21734;DHT22;11029;47.820;10.534;2024-01-30T01:18:45;-1.10;72.00
21734;DHT22;11029;47.820;10.534;2024-01-30T01:21:30;-1.10;70.90
21734;DHT22;11029;47.820;10.534;2024-01-30T01:24:15;-1.20;71.70
21734;DHT22;11029;47.820;10.534;2024-01-30T01:27:01;-1.20;71.70
21734;DHT22;11029;47.820;10.534;2024-01-30T01:29:46;-1.20;72.20
21734;DHT22;11029;47.820;10.534;2024-01-30T01:32:32;-1.20;72.00
21734;DHT22;11029;47.820;10.534;2024-01-30T01:35:18;-1.20;72.00
21734;DHT22;11029;47.820;10.534;2024-01-30T01:38:04;-1.10;71.70
21734;DHT22;11029;47.820;10.534;2024-01-30T01:40:49;-1.10;71.50
21734;DHT22;11029;47.820;10.534;2024-01-30T01:43:35;-1.10;70.70
21734;DHT22;11029;47.820;10.534;2024-01-30T01:46:20;-1.20;71.20
21734;DHT22;11029;47.820;10.534;2024-01-30T01:49:06;-1.20;71.70
21734;DHT22;11029;47.820;10.534;2024-01-30T01:51:55;-1.30;71.50
21734;DHT22;11029;47.820;10.534;2024-01-30T01:54:43;-1.30;71.70
21734;DHT22;11029;47.820;10.534;2024-01-30T01:57:29;-1.40;71.10
21734;DHT22;11029;47.820;10.534;2024-01-30T02:00:15;-1.40;71.50
21734;DHT22;11029;47.820;10.534;2024-01-30T02:03:02;-1.50;71.90
21734;DHT22;11029;47.820;10.534;2024-01-30T02:05:51;-1.40;72.40
21734;DHT22;11029;47.820;10.534;2024-01-30T02:08:37;-1.50;72.30
21734;DHT22;11029;47.820;10.534;2024-01-30T02:11:24;-1.40;72.40
21734;DHT22;11029;47.820;10.534;2024-01-30T02:14:09;-1.40;72.10
21734;DHT22;11029;47.820;10.534;2024-01-30T02:16:55;-1.50;72.50
21734;DHT22;11029;47.820;10.534;2024-01-30T02:19:40;-1.40;72.40
21734;DHT22;11029;47.820;10.534;2024-01-30T02:22:26;-1.40;72.50
21734;DHT22;11029;47.820;10.534;2024-01-30T02:25:12;-1.40;72.10
21734;DHT22;11029;47.820;10.534;2024-01-30T02:27:58;-1.50;72.40
21734;DHT22;11029;47.820;10.534;2024-01-30T02:30:43;-1.50;72.60
21734;DHT22;11029;47.820;10.534;2024-01-30T02:33:29;-1.50;72.70
21734;DHT22;11029;47.820;10.534;2024-01-30T02:36:14;-1.50;72.10
21734;DHT22;11029;47.820;10.534;2024-01-30T02:39:00;-1.50;72.30
21734;DHT22;11029;47.820;10.534;2024-01-30T02:41:46;-1.60;72.30
21734;DHT22;11029;47.820;10.534;2024-01-30T02:44:31;-1.60;72.60
21734;DHT22;11029;47.820;10.534;2024-01-30T02:47:17;-1.60;72.70
21734;DHT22;11029;47.820;10.534;2024-01-30T02:50:03;-1.70;73.30
21734;DHT22;11029;47.820;10.534;2024-01-30T02:52:49;-1.80;74.10
21734;DHT22;11029;47.820;10.534;2024-01-30T02:55:35;-1.70;74.00
21734;DHT22;11029;47.820;10.534;2024-01-30T02:58:20;-1.60;73.50
21734;DHT22;11029;47.820;10.534;2024-01-30T03:01:06;-1.60;73.30
21734;DHT22;11029;47.820;10.534;2024-01-30T03:03:52;-1.60;73.50
21734;DHT22;11029;47.820;10.534;2024-01-30T03:06:38;-1.50;72.70
21734;DHT22;11029;47.820;10.534;2024-01-30T03:09:24;-1.60;72.40
21734;DHT22;11029;47.820;10.534;2024-01-30T03:12:09;-1.60;72.50
21734;DHT22;11029;47.820;10.534;2024-01-30T03:14:55;-1.60;72.40
21734;DHT22;11029;47.820;10.534;2024-01-30T03:17:41;-1.60;72.30
21734;DHT22;11029;47.820;10.534;2024-01-30T03:20:27;-1.60;72.40
21734;DHT22;11029;47.820;10.534;2024-01-30T03:23:13;-1.60;72.50
21734;DHT22;11029;47.820;10.534;2024-01-30T03:25:59;-1.60;72.60
21734;DHT22;11029;47.820;10.534;2024-01-30T03:28:44;-1.60;72.60
21734;DHT22;11029;47.820;10.534;2024-01-30T03:31:30;-1.60;72.40
21734;DHT22;11029;47.820;10.534;2024-01-30T03:34:15;-1.60;72.00
21734;DHT22;11029;47.820;10.534;2024-01-30T03:37:01;-1.70;72.50
21734;DHT22;11029;47.820;10.534;2024-01-30T03:39:47;-1.70;72.80
21734;DHT22;11029;47.820;10.534;2024-01-30T03:42:32;-1.70;72.40
21734;DHT22;11029;47.820;10.534;2024-01-30T03:45:17;-1.70;72.80
21734;DHT22;11029;47.820;10.534;2024-01-30T03:48:05;-1.70;72.10
21734;DHT22;11029;47.820;10.534;2024-01-30T03:50:51;-1.70;72.10
21734;DHT22;11029;47.820;10.534;2024-01-30T03:53:37;-1.70;72.30
21734;DHT22;11029;47.820;10.534;2024-01-30T03:56:22;-1.70;72.90
21734;DHT22;11029;47.820;10.534;2024-01-30T03:59:07;-1.70;72.40
21734;DHT22;11029;47.820;10.534;2024-01-30T04:01:53;-1.70;72.10
21734;DHT22;11029;47.820;10.534;2024-01-30T04:04:39;-1.70;72.20
21734;DHT22;11029;47.820;10.534;2024-01-30T04:07:25;-1.80;72.80
21734;DHT22;11029;47.820;10.534;2024-01-30T04:10:11;-1.80;73.00
21734;DHT22;11029;47.820;10.534;2024-01-30T04:12:57;-1.80;72.50
21734;DHT22;11029;47.820;10.534;2024-01-30T04:15:42;-1.80;73.10
21734;DHT22;11029;47.820;10.534;2024-01-30T04:18:28;-1.80;73.20
21734;DHT22;11029;47.820;10.534;2024-01-30T04:21:13;-1.80;72.50
21734;DHT22;11029;47.820;10.534;2024-01-30T04:23:59;-1.80;72.70
21734;DHT22;11029;47.820;10.534;2024-01-30T04:26:44;-1.80;72.90
21734;DHT22;11029;47.820;10.534;2024-01-30T04:29:30;-1.80;73.20
21734;DHT22;11029;47.820;10.534;2024-01-30T04:32:17;-1.70;72.60
21734;DHT22;11029;47.820;10.534;2024-01-30T04:35:03;-1.70;72.40
21734;DHT22;11029;47.820;10.534;2024-01-30T04:37:55;-1.70;72.40
21734;DHT22;11029;47.820;10.534;2024-01-30T04:40:41;-1.70;71.90
21734;DHT22;11029;47.820;10.534;2024-01-30T04:43:26;-1.70;71.70
21734;DHT22;11029;47.820;10.534;2024-01-30T04:46:12;-1.80;72.00
21734;DHT22;11029;47.820;10.534;2024-01-30T04:48:58;-1.80;72.20
21734;DHT22;11029;47.820;10.534;2024-01-30T04:51:45;-1.90;72.80
21734;DHT22;11029;47.820;10.534;2024-01-30T04:54:31;-1.80;72.90
21734;DHT22;11029;47.820;10.534;2024-01-30T04:57:17;-1.80;72.40
21734;DHT22;11029;47.820;10.534;2024-01-30T05:00:03;-1.80;72.00
21734;DHT22;11029;47.820;10.534;2024-01-30T05:02:48;-1.90;74.10
21734;DHT22;11029;47.820;10.534;2024-01-30T05:05:34;-1.90;73.80
21734;DHT22;11029;47.820;10.534;2024-01-30T05:08:19;-1.90;73.20
21734;DHT22;11029;47.820;10.534;2024-01-30T05:11:05;-2.00;73.30
21734;DHT22;11029;47.820;10.534;2024-01-30T05:13:51;-2.00;73.30
21734;DHT22;11029;47.820;10.534;2024-01-30T05:16:36;-2.00;73.20
21734;DHT22;11029;47.820;10.534;2024-01-30T05:19:22;-2.00;73.50
21734;DHT22;11029;47.820;10.534;2024-01-30T05:22:09;-2.10;72.80
21734;DHT22;11029;47.820;10.534;2024-01-30T05:24:54;-2.10;73.30
21734;DHT22;11029;47.820;10.534;2024-01-30T05:27:40;-2.10;73.80
21734;DHT22;11029;47.820;10.534;2024-01-30T05:30:26;-2.10;73.30
21734;DHT22;11029;47.820;10.534;2024-01-30T05:33:11;-2.00;72.80
21734;DHT22;11029;47.820;10.534;2024-01-30T05:35:57;-2.00;72.80
21734;DHT22;11029;47.820;10.534;2024-01-30T05:38:43;-2.00;72.90
21734;DHT22;11029;47.820;10.534;2024-01-30T05:41:28;-2.00;72.80
21734;DHT22;11029;47.820;10.534;2024-01-30T05:44:14;-2.00;73.00
21734;DHT22;11029;47.820;10.534;2024-01-30T05:46:59;-2.00;72.80
21734;DHT22;11029;47.820;10.534;2024-01-30T05:49:45;-2.00;72.80
21734;DHT22;11029;47.820;10.534;2024-01-30T05:52:30;-2.00;72.90
21734;DHT22;11029;47.820;10.534;2024-01-30T05:55:16;-2.00;72.50
21734;DHT22;11029;47.820;10.534;2024-01-30T05:58:02;-2.10;72.50
21734;DHT22;11029;47.820;10.534;2024-01-30T06:00:47;-2.10;73.50
21734;DHT22;11029;47.820;10.534;2024-01-30T06:03:33;-2.10;73.00
21734;DHT22;11029;47.820;10.534;2024-01-30T06:06:18;-2.10;73.00
21734;DHT22;11029;47.820;10.534;2024-01-30T06:09:04;-2.20;73.90
21734;DHT22;11029;47.820;10.534;2024-01-30T06:11:49;-2.20;73.60
21734;DHT22;11029;47.820;10.534;2024-01-30T06:14:35;-2.20;73.80
21734;DHT22;11029;47.820;10.534;2024-01-30T06:17:20;-2.20;73.40
21734;DHT22;11029;47.820;10.534;2024-01-30T06:20:06;-2.20;73.60
21734;DHT22;11029;47.820;10.534;2024-01-30T06:22:52;-2.10;74.00
21734;DHT22;11029;47.820;10.534;2024-01-30T06:25:38;-2.10;73.10
21734;DHT22;11029;47.820;10.534;2024-01-30T06:28:23;-2.10;73.60
21734;DHT22;11029;47.820;10.534;2024-01-30T06:31:09;-2.10;73.40
21734;DHT22;11029;47.820;10.534;2024-01-30T06:33:55;-2.10;73.70
21734;DHT22;11029;47.820;10.534;2024-01-30T06:36:41;-2.10;73.70
21734;DHT22;11029;47.820;10.534;2024-01-30T06:39:26;-2.20;73.70
21734;DHT22;11029;47.820;10.534;2024-01-30T06:42:12;-2.20;73.50
21734;DHT22;11029;47.820;10.534;2024-01-30T06:44:57;-2.20;74.30
21734;DHT22;11029;47.820;10.534;2024-01-30T06:47:43;-2.10;73.90
21734;DHT22;11029;47.820;10.534;2024-01-30T06:50:28;-2.10;73.70
21734;DHT22;11029;47.820;10.534;2024-01-30T06:53:14;-2.10;73.80
21734;DHT22;11029;47.820;10.534;2024-01-30T06:56:00;-2.10;73.10
21734;DHT22;11029;47.820;10.534;2024-01-30T06:58:45;-2.10;73.50
21734;DHT22;11029;47.820;10.534;2024-01-30T07:01:31;-2.10;73.60
21734;DHT22;11029;47.820;10.534;2024-01-30T07:04:18;-2.10;73.80
21734;DHT22;11029;47.820;10.534;2024-01-30T07:07:04;-2.00;73.50
21734;DHT22;11029;47.820;10.534;2024-01-30T07:09:51;-1.90;73.30
21734;DHT22;11029;47.820;10.534;2024-01-30T07:12:41;-1.80;72.90
21734;DHT22;11029;47.820;10.534;2024-01-30T07:15:27;-1.80;72.40
21734;DHT22;11029;47.820;10.534;2024-01-30T07:18:13;-1.80;72.50
21734;DHT22;11029;47.820;10.534;2024-01-30T07:20:59;-1.70;72.60
21734;DHT22;11029;47.820;10.534;2024-01-30T07:23:44;-1.70;72.10
21734;DHT22;11029;47.820;10.534;2024-01-30T07:26:30;-1.60;72.00
21734;DHT22;11029;47.820;10.534;2024-01-30T07:29:15;-1.50;72.10
21734;DHT22;11029;47.820;10.534;2024-01-30T07:32:01;-1.50;71.60
21734;DHT22;11029;47.820;10.534;2024-01-30T07:34:46;-1.50;72.00
21734;DHT22;11029;47.820;10.534;2024-01-30T07:37:50;-1.30;72.00
21734;DHT22;11029;47.820;10.534;2024-01-30T07:40:36;-1.20;72.10
21734;DHT22;11029;47.820;10.534;2024-01-30T07:43:21;-1.20;72.40
21734;DHT22;11029;47.820;10.534;2024-01-30T07:46:07;-1.10;71.70
21734;DHT22;11029;47.820;10.534;2024-01-30T07:48:53;-0.90;71.50
21734;DHT22;11029;47.820;10.534;2024-01-30T07:51:40;-0.80;71.00
21734;DHT22;11029;47.820;10.534;2024-01-30T07:54:25;-0.70;71.40
21734;DHT22;11029;47.820;10.534;2024-01-30T07:57:10;-0.50;71.00
21734;DHT22;11029;47.820;10.534;2024-01-30T07:59:56;-0.40;70.60
21734;DHT22;11029;47.820;10.534;2024-01-30T08:02:42;-0.20;70.40
21734;DHT22;11029;47.820;10.534;2024-01-30T08:05:28;0.00;69.80
21734;DHT22;11029;47.820;10.534;2024-01-30T08:08:14;0.10;69.60
21734;DHT22;11029;47.820;10.534;2024-01-30T08:11:00;0.30;69.40
21734;DHT22;11029;47.820;10.534;2024-01-30T08:13:45;0.50;68.90
21734;DHT22;11029;47.820;10.534;2024-01-30T08:16:31;0.60;68.80
21734;DHT22;11029;47.820;10.534;2024-01-30T08:19:16;0.80;68.20
21734;DHT22;11029;47.820;10.534;2024-01-30T08:22:02;1.00;69.10
21734;DHT22;11029;47.820;10.534;2024-01-30T08:24:48;1.10;68.70
21734;DHT22;11029;47.820;10.534;2024-01-30T08:27:34;1.30;68.60
21734;DHT22;11029;47.820;10.534;2024-01-30T08:30:20;1.50;68.90
21734;DHT22;11029;47.820;10.534;2024-01-30T08:33:06;1.70;69.60
21734;DHT22;11029;47.820;10.534;2024-01-30T08:35:51;1.90;69.40
21734;DHT22;11029;47.820;10.534;2024-01-30T08:38:37;2.00;69.10
21734;DHT22;11029;47.820;10.534;2024-01-30T08:41:22;2.10;69.20
21734;DHT22;11029;47.820;10.534;2024-01-30T08:44:08;2.30;68.70
21734;DHT22;11029;47.820;10.534;2024-01-30T08:46:53;2.50;68.20
21734;DHT22;11029;47.820;10.534;2024-01-30T08:49:41;2.60;67.60
21734;DHT22;11029;47.820;10.534;2024-01-30T08:52:29;2.80;67.70
21734;DHT22;11029;47.820;10.534;2024-01-30T08:55:15;3.10;67.10
21734;DHT22;11029;47.820;10.534;2024-01-30T08:58:00;3.30;66.00
21734;DHT22;11029;47.820;10.534;2024-01-30T09:00:46;3.40;65.90
21734;DHT22;11029;47.820;10.534;2024-01-30T09:03:32;3.70;65.70
21734;DHT22;11029;47.820;10.534;2024-01-30T09:06:18;3.90;65.10
21734;DHT22;11029;47.820;10.534;2024-01-30T09:09:03;4.10;64.90
21734;DHT22;11029;47.820;10.534;2024-01-30T09:11:50;4.40;64.30
21734;DHT22;11029;47.820;10.534;2024-01-30T09:14:36;4.60;64.30
21734;DHT22;11029;47.820;10.534;2024-01-30T09:17:22;4.80;63.20
21734;DHT22;11029;47.820;10.534;2024-01-30T09:20:08;5.00;61.90
21734;DHT22;11029;47.820;10.534;2024-01-30T09:22:54;5.10;62.20
21734;DHT22;11029;47.820;10.534;2024-01-30T09:25:40;5.30;61.60
21734;DHT22;11029;47.820;10.534;2024-01-30T09:28:25;5.40;61.40
21734;DHT22;11029;47.820;10.534;2024-01-30T09:31:12;5.60;61.40
21734;DHT22;11029;47.820;10.534;2024-01-30T09:33:58;5.80;61.50
21734;DHT22;11029;47.820;10.534;2024-01-30T09:36:44;6.00;61.30
21734;DHT22;11029;47.820;10.534;2024-01-30T09:39:29;6.20;60.70
21734;DHT22;11029;47.820;10.534;2024-01-30T09:42:26;6.30;60.70
21734;DHT22;11029;47.820;10.534;2024-01-30T09:45:14;6.60;60.60
21734;DHT22;11029;47.820;10.534;2024-01-30T09:48:00;6.70;60.40
21734;DHT22;11029;47.820;10.534;2024-01-30T09:50:46;6.80;60.90
21734;DHT22;11029;47.820;10.534;2024-01-30T09:53:32;7.00;58.40
21734;DHT22;11029;47.820;10.534;2024-01-30T09:56:18;7.10;58.60
21734;DHT22;11029;47.820;10.534;2024-01-30T09:59:03;7.30;57.50
21734;DHT22;11029;47.820;10.534;2024-01-30T10:01:50;7.50;55.90
21734;DHT22;11029;47.820;10.534;2024-01-30T10:04:36;7.70;54.50
21734;DHT22;11029;47.820;10.534;2024-01-30T10:07:22;7.80;52.80
21734;DHT22;11029;47.820;10.534;2024-01-30T10:10:08;7.90;54.10
21734;DHT22;11029;47.820;10.534;2024-01-30T10:12:53;7.90;54.40
21734;DHT22;11029;47.820;10.534;2024-01-30T10:15:39;7.90;54.50
21734;DHT22;11029;47.820;10.534;2024-01-30T10:18:25;8.00;54.30
21734;DHT22;11029;47.820;10.534;2024-01-30T10:21:11;8.20;54.00
21734;DHT22;11029;47.820;10.534;2024-01-30T10:23:56;8.40;53.60
21734;DHT22;11029;47.820;10.534;2024-01-30T10:26:45;8.70;53.00
21734;DHT22;11029;47.820;10.534;2024-01-30T10:29:32;9.00;51.80
21734;DHT22;11029;47.820;10.534;2024-01-30T10:32:17;9.10;49.90
21734;DHT22;11029;47.820;10.534;2024-01-30T10:35:03;9.20;49.20
21734;DHT22;11029;47.820;10.534;2024-01-30T10:37:49;9.20;49.80
21734;DHT22;11029;47.820;10.534;2024-01-30T10:40:36;9.20;48.70
21734;DHT22;11029;47.820;10.534;2024-01-30T10:43:27;9.20;48.60
21734;DHT22;11029;47.820;10.534;2024-01-30T10:46:20;9.20;48.50
21734;DHT22;11029;47.820;10.534;2024-01-30T10:49:09;9.10;53.90
21734;DHT22;11029;47.820;10.534;2024-01-30T10:51:56;8.90;54.40
21734;DHT22;11029;47.820;10.534;2024-01-30T10:54:44;8.80;53.20
21734;DHT22;11029;47.820;10.534;2024-01-30T10:57:31;9.00;52.30
21734;DHT22;11029;47.820;10.534;2024-01-30T11:00:19;9.10;51.80
21734;DHT22;11029;47.820;10.534;2024-01-30T11:03:08;9.30;51.20
21734;DHT22;11029;47.820;10.534;2024-01-30T11:05:58;9.40;51.20
21734;DHT22;11029;47.820;10.534;2024-01-30T11:09:03;9.50;49.70
21734;DHT22;11029;47.820;10.534;2024-01-30T11:11:56;9.50;49.50
21734;DHT22;11029;47.820;10.534;2024-01-30T11:14:46;9.60;49.30
21734;DHT22;11029;47.820;10.534;2024-01-30T11:20:34;9.60;48.10
21734;DHT22;11029;47.820;10.534;2024-01-30T11:23:23;9.60;48.00
21734;DHT22;11029;47.820;10.534;2024-01-30T11:26:12;9.70;48.40
21734;DHT22;11029;47.820;10.534;2024-01-30T11:28:57;9.70;49.30
21734;DHT22;11029;47.820;10.534;2024-01-30T11:31:58;9.70;49.00
21734;DHT22;11029;47.820;10.534;2024-01-30T11:34:44;9.60;46.20
21734;DHT22;11029;47.820;10.534;2024-01-30T11:37:31;9.60;45.20
21734;DHT22;11029;47.820;10.534;2024-01-30T11:40:17;9.60;46.00
21734;DHT22;11029;47.820;10.534;2024-01-30T11:43:04;9.60;46.50
21734;DHT22;11029;47.820;10.534;2024-01-30T11:45:51;9.60;47.40
21734;DHT22;11029;47.820;10.534;2024-01-30T11:48:37;9.60;47.60
21734;DHT22;11029;47.820;10.534;2024-01-30T11:51:23;9.70;47.90
21734;DHT22;11029;47.820;10.534;2024-01-30T11:54:09;9.90;48.10
21734;DHT22;11029;47.820;10.534;2024-01-30T11:56:54;10.00;44.80
21734;DHT22;11029;47.820;10.534;2024-01-30T11:59:40;10.00;44.70
21734;DHT22;11029;47.820;10.534;2024-01-30T12:02:26;10.00;45.40
21734;DHT22;11029;47.820;10.534;2024-01-30T12:05:12;10.00;44.50
21734;DHT22;11029;47.820;10.534;2024-01-30T12:07:58;10.10;47.50
21734;DHT22;11029;47.820;10.534;2024-01-30T12:10:58;10.10;47.00
21734;DHT22;11029;47.820;10.534;2024-01-30T12:13:44;10.20;45.10
21734;DHT22;11029;47.820;10.534;2024-01-30T12:16:30;10.30;45.10
21734;DHT22;11029;47.820;10.534;2024-01-30T12:19:23;10.50;45.40
21734;DHT22;11029;47.820;10.534;2024-01-30T12:22:10;10.60;44.50
21734;DHT22;11029;47.820;10.534;2024-01-30T12:24:57;10.60;44.60
21734;DHT22;11029;47.820;10.534;2024-01-30T12:27:48;10.60;44.50
21734;DHT22;11029;47.820;10.534;2024-01-30T12:30:37;10.60;44.90
21734;DHT22;11029;47.820;10.534;2024-01-30T12:33:26;10.70;44.70
21734;DHT22;11029;47.820;10.534;2024-01-30T12:36:13;10.90;44.50
21734;DHT22;11029;47.820;10.534;2024-01-30T12:38:58;11.00;44.60
21734;DHT22;11029;47.820;10.534;2024-01-30T12:41:44;11.20;44.90
21734;DHT22;11029;47.820;10.534;2024-01-30T12:44:30;11.30;44.40
21734;DHT22;11029;47.820;10.534;2024-01-30T12:47:15;11.20;45.20
21734;DHT22;11029;47.820;10.534;2024-01-30T12:50:01;11.20;45.20
21734;DHT22;11029;47.820;10.534;2024-01-30T12:52:47;11.00;45.60
21734;DHT22;11029;47.820;10.534;2024-01-30T12:55:35;11.00;47.20
21734;DHT22;11029;47.820;10.534;2024-01-30T12:58:20;10.90;46.30
21734;DHT22;11029;47.820;10.534;2024-01-30T13:01:06;10.90;47.30
21734;DHT22;11029;47.820;10.534;2024-01-30T13:03:52;10.90;47.40
21734;DHT22;11029;47.820;10.534;2024-01-30T13:06:38;10.80;47.00
21734;DHT22;11029;47.820;10.534;2024-01-30T13:09:24;10.70;47.60
21734;DHT22;11029;47.820;10.534;2024-01-30T13:12:09;10.60;48.60
21734;DHT22;11029;47.820;10.534;2024-01-30T13:14:55;10.50;48.30
21734;DHT22;11029;47.820;10.534;2024-01-30T13:17:40;10.60;48.10
21734;DHT22;11029;47.820;10.534;2024-01-30T13:20:28;10.70;47.50
21734;DHT22;11029;47.820;10.534;2024-01-30T13:23:13;10.70;47.30
21734;DHT22;11029;47.820;10.534;2024-01-30T13:25:59;10.60;47.60
21734;DHT22;11029;47.820;10.534;2024-01-30T13:28:44;10.60;47.90
21734;DHT22;11029;47.820;10.534;2024-01-30T13:31:30;10.60;47.20
21734;DHT22;11029;47.820;10.534;2024-01-30T13:34:16;10.70;48.20
21734;DHT22;11029;47.820;10.534;2024-01-30T13:37:02;11.00;47.40
21734;DHT22;11029;47.820;10.534;2024-01-30T13:39:48;11.10;47.50
21734;DHT22;11029;47.820;10.534;2024-01-30T13:42:33;11.20;45.50
21734;DHT22;11029;47.820;10.534;2024-01-30T13:45:19;11.30;46.80
21734;DHT22;11029;47.820;10.534;2024-01-30T13:48:07;11.40;46.30
21734;DHT22;11029;47.820;10.534;2024-01-30T13:50:53;11.70;46.40
21734;DHT22;11029;47.820;10.534;2024-01-30T13:53:39;11.80;46.30
21734;DHT22;11029;47.820;10.534;2024-01-30T13:56:25;12.00;46.10
21734;DHT22;11029;47.820;10.534;2024-01-30T13:59:11;12.20;45.80
21734;DHT22;11029;47.820;10.534;2024-01-30T14:01:57;12.10;44.30
21734;DHT22;11029;47.820;10.534;2024-01-30T14:04:43;12.30;44.90
21734;DHT22;11029;47.820;10.534;2024-01-30T14:07:30;12.50;44.70
21734;DHT22;11029;47.820;10.534;2024-01-30T14:10:15;12.90;44.30
21734;DHT22;11029;47.820;10.534;2024-01-30T14:13:01;13.30;43.50
21734;DHT22;11029;47.820;10.534;2024-01-30T14:15:46;13.60;42.90
21734;DHT22;11029;47.820;10.534;2024-01-30T14:18:32;14.00;42.40
21734;DHT22;11029;47.820;10.534;2024-01-30T14:21:18;14.60;41.60
21734;DHT22;11029;47.820;10.534;2024-01-30T14:24:04;14.70;40.90
21734;DHT22;11029;47.820;10.534;2024-01-30T14:26:49;14.40;41.00
21734;DHT22;11029;47.820;10.534;2024-01-30T14:29:35;13.80;41.40
21734;DHT22;11029;47.820;10.534;2024-01-30T14:32:20;13.50;41.70
21734;DHT22;11029;47.820;10.534;2024-01-30T14:35:06;13.30;42.60
21734;DHT22;11029;47.820;10.534;2024-01-30T14:37:52;13.50;42.80
21734;DHT22;11029;47.820;10.534;2024-01-30T14:40:39;14.10;40.60
21734;DHT22;11029;47.820;10.534;2024-01-30T14:43:25;14.50;39.40
21734;DHT22;11029;47.820;10.534;2024-01-30T14:46:11;14.70;38.70
21734;DHT22;11029;47.820;10.534;2024-01-30T14:48:56;14.60;39.00
21734;DHT22;11029;47.820;10.534;2024-01-30T14:51:43;14.40;38.60
21734;DHT22;11029;47.820;10.534;2024-01-30T14:54:28;14.20;38.50
21734;DHT22;11029;47.820;10.534;2024-01-30T14:57:14;14.20;39.10
21734;DHT22;11029;47.820;10.534;2024-01-30T15:00:00;14.20;38.60
21734;DHT22;11029;47.820;10.534;2024-01-30T15:02:46;14.40;38.80
21734;DHT22;11029;47.820;10.534;2024-01-30T15:05:32;14.80;38.40
21734;DHT22;11029;47.820;10.534;2024-01-30T15:08:18;14.60;38.20
21734;DHT22;11029;47.820;10.534;2024-01-30T15:11:03;14.60;38.60
21734;DHT22;11029;47.820;10.534;2024-01-30T15:13:50;15.20;38.30
21734;DHT22;11029;47.820;10.534;2024-01-30T15:16:35;16.40;36.60
21734;DHT22;11029;47.820;10.534;2024-01-30T15:19:21;16.00;37.10
21734;DHT22;11029;47.820;10.534;2024-01-30T15:22:07;15.10;37.90
21734;DHT22;11029;47.820;10.534;2024-01-30T15:24:52;15.20;38.40
21734;DHT22;11029;47.820;10.534;2024-01-30T15:27:38;14.90;38.30
21734;DHT22;11029;47.820;10.534;2024-01-30T15:30:24;13.80;39.80
21734;DHT22;11029;47.820;10.534;2024-01-30T15:33:10;12.50;42.40
21734;DHT22;11029;47.820;10.534;2024-01-30T15:35:56;11.80;43.90
21734;DHT22;11029;47.820;10.534;2024-01-30T15:38:42;11.60;44.30
21734;DHT22;11029;47.820;10.534;2024-01-30T15:41:27;11.30;44.80
21734;DHT22;11029;47.820;10.534;2024-01-30T15:44:13;11.10;45.10
21734;DHT22;11029;47.820;10.534;2024-01-30T15:46:58;10.90;46.40
21734;DHT22;11029;47.820;10.534;2024-01-30T15:49:44;10.70;46.70
21734;DHT22;11029;47.820;10.534;2024-01-30T15:52:30;10.50;48.00
21734;DHT22;11029;47.820;10.534;2024-01-30T15:55:16;10.30;49.20
21734;DHT22;11029;47.820;10.534;2024-01-30T15:58:03;10.00;49.80
21734;DHT22;11029;47.820;10.534;2024-01-30T16:00:49;9.60;51.00
21734;DHT22;11029;47.820;10.534;2024-01-30T16:03:34;9.30;51.80
21734;DHT22;11029;47.820;10.534;2024-01-30T16:06:20;9.00;52.10
21734;DHT22;11029;47.820;10.534;2024-01-30T16:09:05;8.50;53.30
21734;DHT22;11029;47.820;10.534;2024-01-30T16:11:51;8.10;54.70
21734;DHT22;11029;47.820;10.534;2024-01-30T16:14:36;7.90;55.80
21734;DHT22;11029;47.820;10.534;2024-01-30T16:17:22;7.70;56.50
21734;DHT22;11029;47.820;10.534;2024-01-30T16:20:08;7.50;57.00
21734;DHT22;11029;47.820;10.534;2024-01-30T16:22:54;7.30;57.40
21734;DHT22;11029;47.820;10.534;2024-01-30T16:25:40;7.10;57.90
21734;DHT22;11029;47.820;10.534;2024-01-30T16:28:26;6.90;58.30
21734;DHT22;11029;47.820;10.534;2024-01-30T16:31:12;6.60;58.20
21734;DHT22;11029;47.820;10.534;2024-01-30T16:34:03;6.40;59.30
21734;DHT22;11029;47.820;10.534;2024-01-30T16:36:49;6.10;59.70
21734;DHT22;11029;47.820;10.534;2024-01-30T16:39:34;6.00;60.30
21734;DHT22;11029;47.820;10.534;2024-01-30T16:42:20;5.80;61.00
21734;DHT22;11029;47.820;10.534;2024-01-30T16:45:05;5.70;61.20
21734;DHT22;11029;47.820;10.534;2024-01-30T16:47:51;5.60;62.10
21734;DHT22;11029;47.820;10.534;2024-01-30T16:50:37;5.50;62.10
21734;DHT22;11029;47.820;10.534;2024-01-30T16:53:23;5.40;62.40
21734;DHT22;11029;47.820;10.534;2024-01-30T16:56:09;5.30;62.90
21734;DHT22;11029;47.820;10.534;2024-01-30T16:58:55;5.20;63.40
21734;DHT22;11029;47.820;10.534;2024-01-30T17:01:41;5.10;63.50
21734;DHT22;11029;47.820;10.534;2024-01-30T17:04:30;5.20;63.40
21734;DHT22;11029;47.820;10.534;2024-01-30T17:07:18;5.50;61.10
21734;DHT22;11029;47.820;10.534;2024-01-30T17:10:05;5.80;60.10
21734;DHT22;11029;47.820;10.534;2024-01-30T17:12:51;5.80;59.90
21734;DHT22;11029;47.820;10.534;2024-01-30T17:15:38;5.90;59.90
21734;DHT22;11029;47.820;10.534;2024-01-30T17:18:23;5.90;60.50
21734;DHT22;11029;47.820;10.534;2024-01-30T17:21:19;5.80;60.40